sensor_id;sensor_type;location;lat;lon;timestamp;pressure;altitude;pressure_sealevel;temperature;humidity
76553;BME280;65395;53.168;18.156;2023-03-14T00:01:08;98900.02;;;10.27;79.55
76553;BME280;65395;53.168;18.156;2023-03-14T00:03:34;98889.58;;;10.23;79.58
76553;BME280;65395;53.168;18.156;2023-03-14T00:06:03;98892.18;;;10.23;79.61
76553;BME280;65395;53.168;18.156;2023-03-14T00:08:30;98890.70;;;10.21;79.57
76553;BME280;65395;53.168;18.156;2023-03-14T00:10:57;98894.39;;;10.19;79.64
76553;BME280;65395;53.168;18.156;2023-03-14T00:13:24;98897.61;;;10.19;79.64
76553;BME280;65395;53.168;18.156;2023-03-14T00:15:51;98902.17;;;10.18;79.60
76553;BME280;65395;53.168;18.156;2023-03-14T00:18:18;98903.01;;;10.18;79.65
76553;BME280;65395;53.168;18.156;2023-03-14T00:20:46;98907.64;;;10.17;79.60
76553;BME280;65395;53.168;18.156;2023-03-14T00:23:12;98906.25;;;10.16;79.60
76553;BME280;65395;53.168;18.156;2023-03-14T00:25:39;98897.67;;;10.14;79.59
76553;BME280;65395;53.168;18.156;2023-03-14T00:28:06;98896.31;;;10.14;79.68
76553;BME280;65395;53.168;18.156;2023-03-14T00:30:37;98899.40;;;10.14;79.54
76553;BME280;65395;53.168;18.156;2023-03-14T00:33:04;98894.91;;;10.13;79.71
76553;BME280;65395;53.168;18.156;2023-03-14T00:35:31;98895.44;;;10.13;79.62
76553;BME280;65395;53.168;18.156;2023-03-14T00:37:57;98900.06;;;10.12;79.64
76553;BME280;65395;53.168;18.156;2023-03-14T00:40:24;98896.53;;;10.12;79.67
76553;BME280;65395;53.168;18.156;2023-03-14T00:42:51;98897.11;;;10.13;79.62
76553;BME280;65395;53.168;18.156;2023-03-14T00:45:17;98894.95;;;10.14;79.58
76553;BME280;65395;53.168;18.156;2023-03-14T00:47:44;98886.07;;;10.15;79.54
76553;BME280;65395;53.168;18.156;2023-03-14T00:50:11;98885.52;;;10.17;79.42
76553;BME280;65395;53.168;18.156;2023-03-14T00:52:38;98875.45;;;10.17;79.34
76553;BME280;65395;53.168;18.156;2023-03-14T00:55:06;98872.48;;;10.18;79.36
76553;BME280;65395;53.168;18.156;2023-03-14T00:57:33;98867.70;;;10.20;79.32
76553;BME280;65395;53.168;18.156;2023-03-14T01:00:00;98863.08;;;10.21;79.28
76553;BME280;65395;53.168;18.156;2023-03-14T01:02:28;98854.30;;;10.22;79.08
76553;BME280;65395;53.168;18.156;2023-03-14T01:04:56;98849.36;;;10.24;78.86
76553;BME280;65395;53.168;18.156;2023-03-14T01:07:23;98845.73;;;10.28;78.86
76553;BME280;65395;53.168;18.156;2023-03-14T01:09:52;98843.73;;;10.32;78.60
76553;BME280;65395;53.168;18.156;2023-03-14T01:12:19;98837.23;;;10.33;78.55
76553;BME280;65395;53.168;18.156;2023-03-14T01:14:45;98835.86;;;10.35;78.33
76553;BME280;65395;53.168;18.156;2023-03-14T01:17:12;98833.29;;;10.37;78.29
76553;BME280;65395;53.168;18.156;2023-03-14T01:19:39;98842.48;;;10.39;78.00
76553;BME280;65395;53.168;18.156;2023-03-14T01:22:06;98838.85;;;10.41;77.89
76553;BME280;65395;53.168;18.156;2023-03-14T01:24:32;98830.66;;;10.47;77.69
76553;BME280;65395;53.168;18.156;2023-03-14T01:26:59;98833.08;;;10.51;77.42
76553;BME280;65395;53.168;18.156;2023-03-14T01:29:26;98830.77;;;10.56;77.31
76553;BME280;65395;53.168;18.156;2023-03-14T01:31:52;98829.16;;;10.61;77.13
76553;BME280;65395;53.168;18.156;2023-03-14T01:34:19;98828.52;;;10.62;77.22
76553;BME280;65395;53.168;18.156;2023-03-14T01:36:47;98828.47;;;10.62;77.11
76553;BME280;65395;53.168;18.156;2023-03-14T01:39:14;98827.24;;;10.64;76.80
76553;BME280;65395;53.168;18.156;2023-03-14T01:41:41;98825.13;;;10.69;76.89
76553;BME280;65395;53.168;18.156;2023-03-14T01:44:10;98826.11;;;10.71;76.76
76553;BME280;65395;53.168;18.156;2023-03-14T01:46:42;98824.56;;;10.75;76.56
76553;BME280;65395;53.168;18.156;2023-03-14T01:49:26;98822.20;;;10.77;76.56
76553;BME280;65395;53.168;18.156;2023-03-14T01:52:04;98823.35;;;10.79;76.52
76553;BME280;65395;53.168;18.156;2023-03-14T01:54:47;98817.89;;;10.83;76.41
76553;BME280;65395;53.168;18.156;2023-03-14T01:57:22;98811.11;;;10.88;76.27
76553;BME280;65395;53.168;18.156;2023-03-14T01:59:57;98804.05;;;10.94;76.02
76553;BME280;65395;53.168;18.156;2023-03-14T02:02:24;98796.89;;;10.98;76.11
76553;BME280;65395;53.168;18.156;2023-03-14T02:04:54;98790.70;;;11.01;76.03
76553;BME280;65395;53.168;18.156;2023-03-14T02:07:31;98782.02;;;11.03;76.22
76553;BME280;65395;53.168;18.156;2023-03-14T02:10:14;98779.56;;;11.03;76.07
76553;BME280;65395;53.168;18.156;2023-03-14T02:12:43;98774.70;;;11.05;76.08
76553;BME280;65395;53.168;18.156;2023-03-14T02:15:20;98768.98;;;11.05;75.97
76553;BME280;65395;53.168;18.156;2023-03-14T02:17:55;98767.66;;;11.06;76.03
76553;BME280;65395;53.168;18.156;2023-03-14T02:20:53;98775.41;;;11.06;76.07
76553;BME280;65395;53.168;18.156;2023-03-14T02:23:38;98779.60;;;11.05;76.02
76553;BME280;65395;53.168;18.156;2023-03-14T02:26:15;98778.54;;;11.02;76.22
76553;BME280;65395;53.168;18.156;2023-03-14T02:28:45;98768.25;;;10.98;76.31
76553;BME280;65395;53.168;18.156;2023-03-14T02:31:12;98769.10;;;10.96;76.40
76553;BME280;65395;53.168;18.156;2023-03-14T02:33:40;98773.60;;;10.96;76.43
76553;BME280;65395;53.168;18.156;2023-03-14T02:36:10;98776.17;;;10.96;76.54
76553;BME280;65395;53.168;18.156;2023-03-14T02:38:55;98773.75;;;10.98;76.50
76553;BME280;65395;53.168;18.156;2023-03-14T02:41:25;98774.10;;;11.02;76.46
76553;BME280;65395;53.168;18.156;2023-03-14T02:43:59;98776.66;;;11.07;76.40
76553;BME280;65395;53.168;18.156;2023-03-14T02:46:26;98772.49;;;11.14;76.25
76553;BME280;65395;53.168;18.156;2023-03-14T02:48:57;98767.09;;;11.22;76.44
76553;BME280;65395;53.168;18.156;2023-03-14T02:51:25;98770.52;;;11.29;76.32
76553;BME280;65395;53.168;18.156;2023-03-14T02:53:52;98771.96;;;11.35;76.17
76553;BME280;65395;53.168;18.156;2023-03-14T02:56:19;98767.59;;;11.41;76.16
76553;BME280;65395;53.168;18.156;2023-03-14T02:58:46;98772.50;;;11.44;76.05
76553;BME280;65395;53.168;18.156;2023-03-14T03:01:20;98776.80;;;11.47;76.09
76553;BME280;65395;53.168;18.156;2023-03-14T03:03:47;98773.65;;;11.51;75.92
76553;BME280;65395;53.168;18.156;2023-03-14T03:06:14;98780.73;;;11.56;75.99
76553;BME280;65395;53.168;18.156;2023-03-14T03:08:41;98784.71;;;11.58;75.88
76553;BME280;65395;53.168;18.156;2023-03-14T03:11:08;98790.60;;;11.61;75.82
76553;BME280;65395;53.168;18.156;2023-03-14T03:13:35;98795.33;;;11.64;75.86
76553;BME280;65395;53.168;18.156;2023-03-14T03:16:03;98793.82;;;11.66;75.65
76553;BME280;65395;53.168;18.156;2023-03-14T03:18:30;98788.07;;;11.67;75.66
76553;BME280;65395;53.168;18.156;2023-03-14T03:21:04;98788.98;;;11.69;75.56
76553;BME280;65395;53.168;18.156;2023-03-14T03:23:32;98787.54;;;11.72;75.50
76553;BME280;65395;53.168;18.156;2023-03-14T03:25:58;98788.92;;;11.76;75.48
76553;BME280;65395;53.168;18.156;2023-03-14T03:28:25;98784.85;;;11.79;75.48
76553;BME280;65395;53.168;18.156;2023-03-14T03:30:52;98773.97;;;11.81;75.64
76553;BME280;65395;53.168;18.156;2023-03-14T03:33:19;98770.84;;;11.83;75.61
76553;BME280;65395;53.168;18.156;2023-03-14T03:35:48;98767.25;;;11.84;75.53
76553;BME280;65395;53.168;18.156;2023-03-14T03:38:18;98762.83;;;11.85;75.64
76553;BME280;65395;53.168;18.156;2023-03-14T03:40:47;98760.83;;;11.83;75.59
76553;BME280;65395;53.168;18.156;2023-03-14T03:43:14;98768.38;;;11.81;75.62
76553;BME280;65395;53.168;18.156;2023-03-14T03:45:43;98775.11;;;11.79;75.77
76553;BME280;65395;53.168;18.156;2023-03-14T03:48:10;98775.52;;;11.77;75.76
76553;BME280;65395;53.168;18.156;2023-03-14T03:50:37;98772.70;;;11.76;75.87
76553;BME280;65395;53.168;18.156;2023-03-14T03:53:03;98769.69;;;11.76;76.01
76553;BME280;65395;53.168;18.156;2023-03-14T03:55:30;98767.16;;;11.75;75.98
76553;BME280;65395;53.168;18.156;2023-03-14T03:57:57;98762.21;;;11.73;76.07
76553;BME280;65395;53.168;18.156;2023-03-14T04:00:24;98756.58;;;11.71;76.22
76553;BME280;65395;53.168;18.156;2023-03-14T04:02:51;98742.93;;;11.68;76.53
76553;BME280;65395;53.168;18.156;2023-03-14T04:05:19;98734.54;;;11.66;76.74
76553;BME280;65395;53.168;18.156;2023-03-14T04:07:55;98724.75;;;11.63;77.07
76553;BME280;65395;53.168;18.156;2023-03-14T04:10:25;98707.85;;;11.60;77.14
76553;BME280;65395;53.168;18.156;2023-03-14T04:13:01;98698.17;;;11.56;77.28
76553;BME280;65395;53.168;18.156;2023-03-14T04:15:30;98695.46;;;11.53;77.43
76553;BME280;65395;53.168;18.156;2023-03-14T04:18:01;98693.83;;;11.51;77.58
76553;BME280;65395;53.168;18.156;2023-03-14T04:20:28;98691.40;;;11.47;77.68
76553;BME280;65395;53.168;18.156;2023-03-14T04:22:55;98696.20;;;11.44;77.74
76553;BME280;65395;53.168;18.156;2023-03-14T04:25:21;98699.38;;;11.41;77.83
76553;BME280;65395;53.168;18.156;2023-03-14T04:27:52;98703.30;;;11.38;78.06
76553;BME280;65395;53.168;18.156;2023-03-14T04:30:23;98699.78;;;11.36;78.03
76553;BME280;65395;53.168;18.156;2023-03-14T04:32:54;98704.61;;;11.34;78.22
76553;BME280;65395;53.168;18.156;2023-03-14T04:35:23;98703.11;;;11.31;78.33
76553;BME280;65395;53.168;18.156;2023-03-14T04:37:53;98693.59;;;11.27;78.36
76553;BME280;65395;53.168;18.156;2023-03-14T04:40:21;98690.46;;;11.26;78.34
76553;BME280;65395;53.168;18.156;2023-03-14T04:42:50;98688.33;;;11.25;78.44
76553;BME280;65395;53.168;18.156;2023-03-14T04:45:17;98681.27;;;11.23;78.59
76553;BME280;65395;53.168;18.156;2023-03-14T04:47:44;98673.64;;;11.20;78.65
76553;BME280;65395;53.168;18.156;2023-03-14T04:50:14;98674.90;;;11.16;78.80
76553;BME280;65395;53.168;18.156;2023-03-14T04:52:41;98682.58;;;11.13;78.89
76553;BME280;65395;53.168;18.156;2023-03-14T04:55:08;98670.65;;;11.10;79.14
76553;BME280;65395;53.168;18.156;2023-03-14T04:57:35;98665.12;;;11.06;79.22
76553;BME280;65395;53.168;18.156;2023-03-14T05:00:03;98673.55;;;11.03;79.31
76553;BME280;65395;53.168;18.156;2023-03-14T05:02:48;98676.27;;;11.00;79.42
76553;BME280;65395;53.168;18.156;2023-03-14T05:05:25;98678.31;;;10.98;79.41
76553;BME280;65395;53.168;18.156;2023-03-14T05:08:02;98687.29;;;10.96;79.52
76553;BME280;65395;53.168;18.156;2023-03-14T05:10:39;98685.46;;;10.95;79.47
76553;BME280;65395;53.168;18.156;2023-03-14T05:13:16;98684.39;;;10.94;79.50
76553;BME280;65395;53.168;18.156;2023-03-14T05:16:06;98675.77;;;10.93;79.52
76553;BME280;65395;53.168;18.156;2023-03-14T05:18:53;98659.64;;;10.90;79.53
76553;BME280;65395;53.168;18.156;2023-03-14T05:21:30;98647.88;;;10.87;79.38
76553;BME280;65395;53.168;18.156;2023-03-14T05:24:15;98651.82;;;10.82;79.54
76553;BME280;65395;53.168;18.156;2023-03-14T05:26:51;98662.34;;;10.76;79.55
76553;BME280;65395;53.168;18.156;2023-03-14T05:29:28;98674.85;;;10.71;79.56
76553;BME280;65395;53.168;18.156;2023-03-14T05:32:06;98688.11;;;10.69;79.59
76553;BME280;65395;53.168;18.156;2023-03-14T05:34:45;98689.20;;;10.68;79.59
76553;BME280;65395;53.168;18.156;2023-03-14T05:37:32;98686.94;;;10.67;79.59
76553;BME280;65395;53.168;18.156;2023-03-14T05:40:09;98679.83;;;10.69;79.45
76553;BME280;65395;53.168;18.156;2023-03-14T05:42:43;98680.09;;;10.70;79.37
76553;BME280;65395;53.168;18.156;2023-03-14T05:45:19;98679.08;;;10.71;79.13
76553;BME280;65395;53.168;18.156;2023-03-14T05:48:03;98673.42;;;10.72;79.03
76553;BME280;65395;53.168;18.156;2023-03-14T05:50:42;98675.02;;;10.72;78.84
76553;BME280;65395;53.168;18.156;2023-03-14T05:53:19;98674.32;;;10.74;78.76
76553;BME280;65395;53.168;18.156;2023-03-14T05:55:53;98674.87;;;10.77;78.64
76553;BME280;65395;53.168;18.156;2023-03-14T05:58:33;98670.89;;;10.78;78.39
76553;BME280;65395;53.168;18.156;2023-03-14T06:01:10;98680.02;;;10.73;78.06
76553;BME280;65395;53.168;18.156;2023-03-14T06:03:46;98674.96;;;10.67;77.90
76553;BME280;65395;53.168;18.156;2023-03-14T06:06:13;98678.02;;;10.63;77.82
76553;BME280;65395;53.168;18.156;2023-03-14T06:08:40;98669.41;;;10.63;77.68
76553;BME280;65395;53.168;18.156;2023-03-14T06:11:10;98670.16;;;10.62;77.62
76553;BME280;65395;53.168;18.156;2023-03-14T06:13:37;98665.59;;;10.63;77.46
76553;BME280;65395;53.168;18.156;2023-03-14T06:16:04;98663.25;;;10.63;77.24
76553;BME280;65395;53.168;18.156;2023-03-14T06:18:31;98666.35;;;10.61;77.14
76553;BME280;65395;53.168;18.156;2023-03-14T06:20:59;98673.86;;;10.61;77.05
76553;BME280;65395;53.168;18.156;2023-03-14T06:23:26;98685.02;;;10.61;76.88
76553;BME280;65395;53.168;18.156;2023-03-14T06:25:53;98688.98;;;10.62;76.55
76553;BME280;65395;53.168;18.156;2023-03-14T06:28:22;98699.25;;;10.64;76.47
76553;BME280;65395;53.168;18.156;2023-03-14T06:30:49;98696.89;;;10.65;76.29
76553;BME280;65395;53.168;18.156;2023-03-14T06:33:16;98697.81;;;10.68;75.95
76553;BME280;65395;53.168;18.156;2023-03-14T06:35:43;98691.73;;;10.72;76.00
76553;BME280;65395;53.168;18.156;2023-03-14T06:38:10;98690.22;;;10.74;75.61
76553;BME280;65395;53.168;18.156;2023-03-14T06:40:37;98687.66;;;10.77;75.14
76553;BME280;65395;53.168;18.156;2023-03-14T06:43:07;98697.77;;;10.80;74.72
76553;BME280;65395;53.168;18.156;2023-03-14T06:45:35;98700.66;;;10.84;73.97
76553;BME280;65395;53.168;18.156;2023-03-14T06:48:02;98691.23;;;10.88;74.42
76553;BME280;65395;53.168;18.156;2023-03-14T06:50:36;98685.79;;;10.91;74.42
76553;BME280;65395;53.168;18.156;2023-03-14T06:53:03;98677.09;;;10.94;74.40
76553;BME280;65395;53.168;18.156;2023-03-14T06:55:31;98679.13;;;10.97;73.86
76553;BME280;65395;53.168;18.156;2023-03-14T06:57:58;98678.16;;;11.00;73.75
76553;BME280;65395;53.168;18.156;2023-03-14T07:00:25;98677.49;;;11.01;73.50
76553;BME280;65395;53.168;18.156;2023-03-14T07:02:54;98678.15;;;11.00;73.15
76553;BME280;65395;53.168;18.156;2023-03-14T07:05:25;98675.79;;;11.02;73.49
76553;BME280;65395;53.168;18.156;2023-03-14T07:07:52;98672.35;;;11.06;73.47
76553;BME280;65395;53.168;18.156;2023-03-14T07:10:19;98689.84;;;11.12;73.35
76553;BME280;65395;53.168;18.156;2023-03-14T07:12:46;98698.94;;;11.19;73.40
76553;BME280;65395;53.168;18.156;2023-03-14T07:15:13;98700.20;;;11.27;72.91
76553;BME280;65395;53.168;18.156;2023-03-14T07:17:40;98694.42;;;11.36;72.81
76553;BME280;65395;53.168;18.156;2023-03-14T07:20:08;98687.19;;;11.45;72.37
76553;BME280;65395;53.168;18.156;2023-03-14T07:22:35;98688.38;;;11.53;72.33
76553;BME280;65395;53.168;18.156;2023-03-14T07:25:02;98689.73;;;11.62;72.26
76553;BME280;65395;53.168;18.156;2023-03-14T07:27:30;98686.95;;;11.70;72.16
76553;BME280;65395;53.168;18.156;2023-03-14T07:29:56;98681.80;;;11.78;72.07
76553;BME280;65395;53.168;18.156;2023-03-14T07:32:23;98682.47;;;11.83;71.46
76553;BME280;65395;53.168;18.156;2023-03-14T07:34:50;98681.84;;;11.86;70.75
76553;BME280;65395;53.168;18.156;2023-03-14T07:37:16;98686.52;;;11.89;70.45
76553;BME280;65395;53.168;18.156;2023-03-14T07:39:43;98683.95;;;11.92;70.71
76553;BME280;65395;53.168;18.156;2023-03-14T07:42:18;98691.52;;;11.93;70.66
76553;BME280;65395;53.168;18.156;2023-03-14T07:44:55;98692.55;;;11.95;70.84
76553;BME280;65395;53.168;18.156;2023-03-14T07:47:21;98690.54;;;11.97;70.46
76553;BME280;65395;53.168;18.156;2023-03-14T07:49:48;98689.75;;;11.98;70.74
76553;BME280;65395;53.168;18.156;2023-03-14T07:52:14;98685.05;;;12.03;70.46
76553;BME280;65395;53.168;18.156;2023-03-14T07:54:41;98682.56;;;12.10;70.47
76553;BME280;65395;53.168;18.156;2023-03-14T07:57:08;98681.90;;;12.13;70.38
76553;BME280;65395;53.168;18.156;2023-03-14T07:59:34;98668.36;;;12.15;70.45
76553;BME280;65395;53.168;18.156;2023-03-14T08:02:01;98674.12;;;12.19;70.10
76553;BME280;65395;53.168;18.156;2023-03-14T08:04:28;98678.59;;;12.24;70.24
76553;BME280;65395;53.168;18.156;2023-03-14T08:06:55;98677.04;;;12.25;69.81
76553;BME280;65395;53.168;18.156;2023-03-14T08:09:21;98666.79;;;12.26;69.78
76553;BME280;65395;53.168;18.156;2023-03-14T08:11:48;98656.21;;;12.29;69.87
76553;BME280;65395;53.168;18.156;2023-03-14T08:14:15;98655.63;;;12.33;69.68
76553;BME280;65395;53.168;18.156;2023-03-14T08:16:42;98649.72;;;12.36;69.90
76553;BME280;65395;53.168;18.156;2023-03-14T08:19:09;98652.79;;;12.38;69.56
76553;BME280;65395;53.168;18.156;2023-03-14T08:21:35;98643.77;;;12.37;69.33
76553;BME280;65395;53.168;18.156;2023-03-14T08:24:02;98643.95;;;12.38;69.58
76553;BME280;65395;53.168;18.156;2023-03-14T08:26:29;98643.70;;;12.40;69.80
76553;BME280;65395;53.168;18.156;2023-03-14T08:28:56;98649.48;;;12.43;69.62
76553;BME280;65395;53.168;18.156;2023-03-14T08:31:23;98650.46;;;12.45;69.82
76553;BME280;65395;53.168;18.156;2023-03-14T08:33:50;98655.71;;;12.51;69.33
76553;BME280;65395;53.168;18.156;2023-03-14T08:36:19;98654.69;;;12.56;69.01
76553;BME280;65395;53.168;18.156;2023-03-14T08:38:46;98651.98;;;12.60;68.84
76553;BME280;65395;53.168;18.156;2023-03-14T08:41:12;98652.86;;;12.63;68.92
76553;BME280;65395;53.168;18.156;2023-03-14T08:43:39;98656.30;;;12.68;68.71
76553;BME280;65395;53.168;18.156;2023-03-14T08:46:06;98662.64;;;12.71;68.64
76553;BME280;65395;53.168;18.156;2023-03-14T08:48:33;98659.98;;;12.74;68.72
76553;BME280;65395;53.168;18.156;2023-03-14T08:51:08;98659.88;;;12.80;68.54
76553;BME280;65395;53.168;18.156;2023-03-14T08:53:37;98664.40;;;12.83;68.36
76553;BME280;65395;53.168;18.156;2023-03-14T08:56:04;98664.86;;;12.84;68.03
76553;BME280;65395;53.168;18.156;2023-03-14T08:58:33;98666.54;;;12.85;68.04
76553;BME280;65395;53.168;18.156;2023-03-14T09:01:00;98668.20;;;12.85;68.33
76553;BME280;65395;53.168;18.156;2023-03-14T09:03:26;98685.69;;;12.87;68.46
76553;BME280;65395;53.168;18.156;2023-03-14T09:05:53;98695.76;;;12.84;68.11
76553;BME280;65395;53.168;18.156;2023-03-14T09:08:19;98710.73;;;12.74;67.71
76553;BME280;65395;53.168;18.156;2023-03-14T09:10:46;98702.73;;;12.64;68.24
76553;BME280;65395;53.168;18.156;2023-03-14T09:13:13;98700.60;;;12.60;68.04
76553;BME280;65395;53.168;18.156;2023-03-14T09:15:39;98700.61;;;12.59;68.28
76553;BME280;65395;53.168;18.156;2023-03-14T09:18:08;98695.25;;;12.60;68.44
76553;BME280;65395;53.168;18.156;2023-03-14T09:20:35;98696.45;;;12.67;68.68
76553;BME280;65395;53.168;18.156;2023-03-14T09:23:02;98692.64;;;12.76;68.60
76553;BME280;65395;53.168;18.156;2023-03-14T09:25:29;98681.28;;;12.85;68.44
76553;BME280;65395;53.168;18.156;2023-03-14T09:27:55;98676.34;;;12.99;68.26
76553;BME280;65395;53.168;18.156;2023-03-14T09:30:22;98678.79;;;13.15;67.86
76553;BME280;65395;53.168;18.156;2023-03-14T09:32:49;98668.52;;;13.28;67.66
76553;BME280;65395;53.168;18.156;2023-03-14T09:35:15;98665.33;;;13.43;67.05
76553;BME280;65395;53.168;18.156;2023-03-14T09:37:42;98663.58;;;13.51;66.30
76553;BME280;65395;53.168;18.156;2023-03-14T09:40:12;98664.63;;;13.55;66.31
76553;BME280;65395;53.168;18.156;2023-03-14T09:42:40;98668.51;;;13.61;66.47
76553;BME280;65395;53.168;18.156;2023-03-14T09:45:23;98670.83;;;13.68;66.23
76553;BME280;65395;53.168;18.156;2023-03-14T09:47:52;98671.89;;;13.77;66.03
76553;BME280;65395;53.168;18.156;2023-03-14T09:50:20;98671.36;;;13.83;65.65
76553;BME280;65395;53.168;18.156;2023-03-14T09:52:49;98672.41;;;13.86;65.41
76553;BME280;65395;53.168;18.156;2023-03-14T09:55:20;98673.83;;;13.89;64.81
76553;BME280;65395;53.168;18.156;2023-03-14T09:57:51;98671.71;;;13.89;64.82
76553;BME280;65395;53.168;18.156;2023-03-14T10:00:25;98672.42;;;13.96;65.38
76553;BME280;65395;53.168;18.156;2023-03-14T10:02:56;98668.67;;;14.08;64.53
76553;BME280;65395;53.168;18.156;2023-03-14T10:05:24;98668.33;;;14.15;63.93
76553;BME280;65395;53.168;18.156;2023-03-14T10:07:52;98675.27;;;14.18;63.53
76553;BME280;65395;53.168;18.156;2023-03-14T10:10:21;98668.86;;;14.20;63.75
76553;BME280;65395;53.168;18.156;2023-03-14T10:12:57;98666.59;;;14.20;63.52
76553;BME280;65395;53.168;18.156;2023-03-14T10:15:30;98661.23;;;14.21;63.82
76553;BME280;65395;53.168;18.156;2023-03-14T10:17:59;98658.02;;;14.24;64.34
76553;BME280;65395;53.168;18.156;2023-03-14T10:20:37;98670.48;;;14.23;63.30
76553;BME280;65395;53.168;18.156;2023-03-14T10:23:18;98669.70;;;14.21;63.33
76553;BME280;65395;53.168;18.156;2023-03-14T10:26:00;98670.27;;;14.18;63.26
76553;BME280;65395;53.168;18.156;2023-03-14T10:28:32;98673.67;;;14.13;63.12
76553;BME280;65395;53.168;18.156;2023-03-14T10:31:00;98672.70;;;14.08;62.98
76553;BME280;65395;53.168;18.156;2023-03-14T10:33:31;98672.05;;;14.06;63.36
76553;BME280;65395;53.168;18.156;2023-03-14T10:36:00;98672.36;;;14.07;63.13
76553;BME280;65395;53.168;18.156;2023-03-14T10:38:32;98668.54;;;14.04;63.36
76553;BME280;65395;53.168;18.156;2023-03-14T10:40:59;98663.27;;;14.05;63.75
76553;BME280;65395;53.168;18.156;2023-03-14T10:43:31;98659.60;;;14.04;63.40
76553;BME280;65395;53.168;18.156;2023-03-14T10:46:02;98660.64;;;13.97;62.90
76553;BME280;65395;53.168;18.156;2023-03-14T10:48:35;98656.38;;;13.95;63.43
76553;BME280;65395;53.168;18.156;2023-03-14T10:51:09;98653.30;;;13.98;63.42
76553;BME280;65395;53.168;18.156;2023-03-14T10:53:44;98655.93;;;14.01;63.27
76553;BME280;65395;53.168;18.156;2023-03-14T10:56:21;98658.45;;;14.07;63.24
76553;BME280;65395;53.168;18.156;2023-03-14T10:58:51;98657.56;;;14.13;62.48
76553;BME280;65395;53.168;18.156;2023-03-14T11:09:56;98676.47;;;13.88;61.99
76553;BME280;65395;53.168;18.156;2023-03-14T11:12:38;98677.35;;;13.78;62.51
76553;BME280;65395;53.168;18.156;2023-03-14T11:18:28;98671.62;;;13.65;62.88
76553;BME280;65395;53.168;18.156;2023-03-14T11:21:02;98671.31;;;13.65;62.57
76553;BME280;65395;53.168;18.156;2023-03-14T11:23:48;98673.77;;;13.59;62.09
76553;BME280;65395;53.168;18.156;2023-03-14T11:26:26;98673.73;;;13.56;62.54
76553;BME280;65395;53.168;18.156;2023-03-14T11:29:08;98668.02;;;13.54;62.65
76553;BME280;65395;53.168;18.156;2023-03-14T11:31:40;98672.55;;;13.54;63.15
76553;BME280;65395;53.168;18.156;2023-03-14T11:34:24;98674.18;;;13.56;62.90
76553;BME280;65395;53.168;18.156;2023-03-14T11:37:06;98672.04;;;13.60;62.87
76553;BME280;65395;53.168;18.156;2023-03-14T11:39:45;98672.27;;;13.68;63.07
76553;BME280;65395;53.168;18.156;2023-03-14T11:42:16;98680.52;;;13.78;62.80
76553;BME280;65395;53.168;18.156;2023-03-14T11:44:47;98674.69;;;13.81;62.51
76553;BME280;65395;53.168;18.156;2023-03-14T11:47:22;98680.30;;;13.87;62.70
76553;BME280;65395;53.168;18.156;2023-03-14T11:49:58;98675.81;;;13.95;62.49
76553;BME280;65395;53.168;18.156;2023-03-14T11:52:33;98674.89;;;13.99;62.62
76553;BME280;65395;53.168;18.156;2023-03-14T11:55:17;98673.21;;;14.03;62.27
76553;BME280;65395;53.168;18.156;2023-03-14T11:57:47;98673.00;;;14.09;62.13
76553;BME280;65395;53.168;18.156;2023-03-14T12:00:22;98676.91;;;14.13;61.57
76553;BME280;65395;53.168;18.156;2023-03-14T12:03:02;98674.61;;;14.15;61.74
76553;BME280;65395;53.168;18.156;2023-03-14T12:05:59;98663.91;;;14.23;61.77
76553;BME280;65395;53.168;18.156;2023-03-14T12:08:42;98661.32;;;14.35;61.85
76553;BME280;65395;53.168;18.156;2023-03-14T12:11:22;98659.67;;;14.48;61.63
76553;BME280;65395;53.168;18.156;2023-03-14T12:13:52;98665.11;;;14.53;61.35
76553;BME280;65395;53.168;18.156;2023-03-14T12:16:34;98659.94;;;14.51;60.75
76553;BME280;65395;53.168;18.156;2023-03-14T12:19:14;98651.98;;;14.45;60.81
76553;BME280;65395;53.168;18.156;2023-03-14T12:21:53;98648.80;;;14.46;60.88
76553;BME280;65395;53.168;18.156;2023-03-14T12:24:26;98642.86;;;14.48;61.17
76553;BME280;65395;53.168;18.156;2023-03-14T12:26:57;98641.56;;;14.48;61.36
76553;BME280;65395;53.168;18.156;2023-03-14T12:29:24;98638.09;;;14.49;61.22
76553;BME280;65395;53.168;18.156;2023-03-14T12:32:12;98642.16;;;14.42;60.93
76553;BME280;65395;53.168;18.156;2023-03-14T12:34:48;98642.00;;;14.26;61.06
76553;BME280;65395;53.168;18.156;2023-03-14T12:40:26;98637.77;;;14.07;61.59
76553;BME280;65395;53.168;18.156;2023-03-14T12:42:59;98639.23;;;14.12;61.56
76553;BME280;65395;53.168;18.156;2023-03-14T12:45:35;98646.41;;;14.23;60.74
76553;BME280;65395;53.168;18.156;2023-03-14T12:48:22;98635.81;;;14.31;61.12
76553;BME280;65395;53.168;18.156;2023-03-14T12:51:03;98630.04;;;14.41;61.13
76553;BME280;65395;53.168;18.156;2023-03-14T12:53:44;98631.02;;;14.46;61.15
76553;BME280;65395;53.168;18.156;2023-03-14T12:56:26;98627.73;;;14.44;60.86
76553;BME280;65395;53.168;18.156;2023-03-14T12:59:09;98629.83;;;14.36;61.14
76553;BME280;65395;53.168;18.156;2023-03-14T13:01:47;98624.10;;;14.29;60.99
76553;BME280;65395;53.168;18.156;2023-03-14T13:04:14;98625.70;;;14.26;61.27
76553;BME280;65395;53.168;18.156;2023-03-14T13:06:53;98625.86;;;14.29;61.06
76553;BME280;65395;53.168;18.156;2023-03-14T13:09:50;98623.05;;;14.29;61.00
76553;BME280;65395;53.168;18.156;2023-03-14T13:12:23;98627.49;;;14.32;61.31
76553;BME280;65395;53.168;18.156;2023-03-14T13:14:54;98623.95;;;14.28;61.26
76553;BME280;65395;53.168;18.156;2023-03-14T13:17:26;98619.61;;;14.22;61.16
76553;BME280;65395;53.168;18.156;2023-03-14T13:19:56;98621.16;;;14.20;61.21
76553;BME280;65395;53.168;18.156;2023-03-14T13:22:27;98617.13;;;14.18;61.02
76553;BME280;65395;53.168;18.156;2023-03-14T13:25:00;98619.89;;;14.16;61.19